Time;durP1;ratioP1;P1;durP2;ratioP2;P2;SDS_P1;SDS_P2;PMS_P1;PMS_P2;Temp;Humidity;BMP_temperature;BMP_pressure;BME280_temperature;BME280_humidity;BME280_pressure;Samples;Min_cycle;Max_cycle;Signal;HPM_P1;HPM_P2
2021/12/10 00:00:09;;;;;;;;;;;24.50;25.20;;;;;;487410;243;1043;-78
2021/12/10 00:02:10;;;;;;;;;;;24.60;25.00;;;;;;487371;243;1110;-78
2021/12/10 00:04:12;;;;;;;;;;;24.10;25.20;;;;;;487404;243;2119;-79
2021/12/10 00:06:13;;;;;;;;;;;24.60;25.00;;;;;;487438;243;1193;-78
2021/12/10 00:08:14;;;;;;;;;;;24.30;25.10;;;;;;487621;244;1120;-79
2021/12/10 00:10:16;;;;;;;;;;;24.00;25.40;;;;;;487469;243;1122;-79
2021/12/10 00:12:18;;;;;;;;;;;24.10;25.30;;;;;;487399;242;1388;-79
2021/12/10 00:14:18;;;;;;;;;;;24.00;25.30;;;;;;487405;243;1587;-78
2021/12/10 00:16:19;;;;;;;;;;;24.00;25.20;;;;;;487391;243;1165;-78
2021/12/10 00:18:21;;;;;;;;;;;24.00;25.30;;;;;;487430;244;1158;-79
2021/12/10 00:20:23;;;;;;;;;;;23.90;25.50;;;;;;487406;244;1019;-79
2021/12/10 00:22:24;;;;;;;;;;;23.90;25.50;;;;;;487286;244;1364;-78
2021/12/10 00:24:28;;;;;;;;;;;24.00;25.40;;;;;;487357;243;2190;-78
2021/12/10 00:26:27;;;;;;;;;;;24.40;25.20;;;;;;487129;244;1427;-79
2021/12/10 00:28:27;;;;;;;;;;;24.20;25.20;;;;;;487454;243;1180;-79
2021/12/10 00:30:30;;;;;;;;;;;24.20;25.20;;;;;;487410;242;1062;-79
2021/12/10 00:32:34;;;;;;;;;;;24.10;25.20;;;;;;487566;243;1423;-78
2021/12/10 00:34:31;;;;;;;;;;;24.20;25.20;;;;;;487266;243;1500;-78
2021/12/10 00:36:33;;;;;;;;;;;24.30;25.30;;;;;;487454;242;1102;-78
2021/12/10 00:38:35;;;;;;;;;;;24.00;25.30;;;;;;487497;242;1064;-78
2021/12/10 00:40:36;;;;;;;;;;;23.70;25.40;;;;;;487621;243;1373;-78
2021/12/10 00:42:37;;;;;;;;;;;23.90;25.40;;;;;;487495;243;1056;-79
2021/12/10 00:44:38;;;;;;;;;;;24.00;25.30;;;;;;487555;243;2130;-79
2021/12/10 00:46:40;;;;;;;;;;;24.10;25.40;;;;;;487415;242;1227;-78
2021/12/10 00:48:41;;;;;;;;;;;24.00;25.20;;;;;;487463;242;1093;-78
2021/12/10 00:50:42;;;;;;;;;;;23.90;25.50;;;;;;487577;243;1142;-79
2021/12/10 00:52:44;;;;;;;;;;;23.90;25.30;;;;;;487489;242;1112;-78
2021/12/10 00:54:45;;;;;;;;;;;24.30;25.30;;;;;;487631;243;1270;-79
2021/12/10 00:56:46;;;;;;;;;;;24.50;25.10;;;;;;487414;243;970;-78
2021/12/10 00:58:48;;;;;;;;;;;24.50;24.80;;;;;;487474;243;1355;-78
2021/12/10 01:00:49;;;;;;;;;;;24.20;25.10;;;;;;487465;244;998;-79
2021/12/10 01:02:50;;;;;;;;;;;24.40;25.10;;;;;;487820;243;1134;-79
2021/12/10 01:04:52;;;;;;;;;;;24.50;25.00;;;;;;487388;245;2178;-79
2021/12/10 01:06:53;;;;;;;;;;;24.90;24.70;;;;;;487467;243;1269;-79
2021/12/10 01:08:54;;;;;;;;;;;25.10;24.50;;;;;;487539;244;1048;-78
2021/12/10 01:10:57;;;;;;;;;;;24.70;24.70;;;;;;487510;243;1048;-79
2021/12/10 01:12:57;;;;;;;;;;;24.90;24.70;;;;;;487392;240;1345;-78
2021/12/10 01:15:08;;;;;;;;;;;24.90;24.70;;;;;;487514;243;1057;-79
2021/12/10 01:24:19;;;;;;;;;;;24.30;25.20;;;;;;479977;243;1173;-79
2021/12/10 01:26:26;;;;;;;;;;;24.40;25.00;;;;;;487283;244;2191;-79
2021/12/10 01:28:24;;;;;;;;;;;24.60;24.90;;;;;;487264;244;1511;-79
2021/12/10 01:30:25;;;;;;;;;;;24.50;24.90;;;;;;487465;243;994;-78
2021/12/10 01:32:27;;;;;;;;;;;24.40;24.80;;;;;;487508;242;1177;-79
2021/12/10 01:34:28;;;;;;;;;;;24.40;24.80;;;;;;487487;242;1055;-79
2021/12/10 01:36:29;;;;;;;;;;;24.30;24.90;;;;;;487412;242;1134;-79
2021/12/10 01:38:31;;;;;;;;;;;24.40;24.80;;;;;;487411;242;1027;-79
2021/12/10 01:40:32;;;;;;;;;;;24.60;24.60;;;;;;487505;242;1484;-79
2021/12/10 01:42:41;;;;;;;;;;;24.50;24.70;;;;;;487434;243;1116;-79
2021/12/10 01:44:42;;;;;;;;;;;24.30;24.90;;;;;;487183;243;1350;-79
2021/12/10 01:46:40;;;;;;;;;;;24.60;24.60;;;;;;487023;244;2194;-78
2021/12/10 01:48:39;;;;;;;;;;;24.60;24.70;;;;;;487295;244;1420;-78
2021/12/10 01:50:40;;;;;;;;;;;24.60;24.60;;;;;;487430;243;1102;-78
2021/12/10 01:52:41;;;;;;;;;;;24.50;24.60;;;;;;487392;243;1051;-78
2021/12/10 01:54:43;;;;;;;;;;;24.50;24.60;;;;;;487445;243;1065;-79
2021/12/10 01:56:44;;;;;;;;;;;24.70;24.60;;;;;;487448;243;1132;-79
2021/12/10 01:58:45;;;;;;;;;;;24.40;24.80;;;;;;487795;243;1138;-78
2021/12/10 02:00:47;;;;;;;;;;;24.60;24.60;;;;;;487402;243;1406;-78
2021/12/10 02:02:48;;;;;;;;;;;24.60;24.70;;;;;;487634;243;1198;-78
2021/12/10 02:04:49;;;;;;;;;;;24.50;24.70;;;;;;487425;244;1103;-79
2021/12/10 02:06:51;;;;;;;;;;;24.90;24.70;;;;;;487452;243;2178;-79
2021/12/10 02:08:52;;;;;;;;;;;24.50;24.50;;;;;;487421;243;1128;-78
2021/12/10 02:10:53;;;;;;;;;;;24.80;24.60;;;;;;487357;242;1209;-78
2021/12/10 02:12:55;;;;;;;;;;;24.90;24.40;;;;;;487455;242;1078;-78
2021/12/10 02:15:01;;;;;;;;;;;24.50;24.50;;;;;;487516;243;1284;-79
2021/12/10 02:17:01;;;;;;;;;;;24.50;24.60;;;;;;487447;243;1483;-79
2021/12/10 02:19:02;;;;;;;;;;;24.50;24.50;;;;;;487496;244;1113;-79
2021/12/10 02:21:03;;;;;;;;;;;24.70;24.60;;;;;;487457;242;1091;-78
2021/12/10 02:23:05;;;;;;;;;;;24.30;24.50;;;;;;487439;245;1065;-79
2021/12/10 02:25:06;;;;;;;;;;;24.00;24.90;;;;;;487477;242;2183;-78
2021/12/10 02:27:07;;;;;;;;;;;24.30;24.90;;;;;;487507;243;1261;-78
2021/12/10 02:29:09;;;;;;;;;;;24.50;24.50;;;;;;487429;244;1113;-80
2021/12/10 02:31:11;;;;;;;;;;;24.50;24.50;;;;;;487773;242;1162;-79
2021/12/10 02:33:11;;;;;;;;;;;24.50;24.50;;;;;;487415;243;1307;-79
2021/12/10 02:35:13;;;;;;;;;;;24.40;24.60;;;;;;487418;243;1151;-79
2021/12/10 02:37:14;;;;;;;;;;;24.30;24.60;;;;;;487434;243;1233;-78
2021/12/10 02:39:15;;;;;;;;;;;24.40;24.60;;;;;;487427;243;984;-79
2021/12/10 02:41:17;;;;;;;;;;;24.30;24.70;;;;;;487402;243;1136;-79
2021/12/10 02:43:18;;;;;;;;;;;24.40;24.50;;;;;;487460;244;1139;-78
2021/12/10 02:45:19;;;;;;;;;;;24.30;24.60;;;;;;487528;244;2190;-78
2021/12/10 02:47:21;;;;;;;;;;;24.50;24.60;;;;;;487512;243;1082;-78
2021/12/10 02:49:22;;;;;;;;;;;24.50;24.50;;;;;;487401;243;1129;-79
2021/12/10 02:51:23;;;;;;;;;;;24.40;24.60;;;;;;487506;243;1108;-79
2021/12/10 02:53:28;;;;;;;;;;;24.30;24.50;;;;;;487554;243;1081;-79
2021/12/10 02:55:26;;;;;;;;;;;24.20;24.60;;;;;;487236;244;1462;-79
2021/12/10 02:57:27;;;;;;;;;;;24.20;24.70;;;;;;487458;243;1068;-78
2021/12/10 02:59:28;;;;;;;;;;;24.20;24.70;;;;;;487416;243;1069;-79
2021/12/10 03:01:30;;;;;;;;;;;24.20;24.60;;;;;;487406;244;1114;-79
2021/12/10 03:03:31;;;;;;;;;;;24.10;24.70;;;;;;487413;243;1120;-79
2021/12/10 03:05:32;;;;;;;;;;;24.00;24.80;;;;;;487456;243;2159;-79
2021/12/10 03:07:34;;;;;;;;;;;24.10;24.80;;;;;;487495;243;1136;-79
2021/12/10 03:09:35;;;;;;;;;;;24.20;24.50;;;;;;487387;243;1048;-79
2021/12/10 03:11:36;;;;;;;;;;;24.10;24.60;;;;;;487570;243;961;-78
2021/12/10 03:13:38;;;;;;;;;;;24.30;24.50;;;;;;487556;243;1124;-78
2021/12/10 03:15:39;;;;;;;;;;;24.20;24.60;;;;;;487454;243;1050;-78
2021/12/10 03:17:42;;;;;;;;;;;24.10;24.80;;;;;;487449;243;1211;-78
2021/12/10 03:19:42;;;;;;;;;;;24.10;24.50;;;;;;487657;242;1461;-79
2021/12/10 03:21:44;;;;;;;;;;;24.10;24.60;;;;;;487319;244;1154;-79
2021/12/10 03:23:44;;;;;;;;;;;24.10;24.60;;;;;;487343;243;1468;-78
2021/12/10 03:25:46;;;;;;;;;;;24.20;24.50;;;;;;487398;242;2190;-78
2021/12/10 03:27:47;;;;;;;;;;;24.00;24.60;;;;;;487478;244;1434;-78
2021/12/10 03:29:48;;;;;;;;;;;24.10;24.70;;;;;;487405;243;1123;-79
2021/12/10 03:31:50;;;;;;;;;;;24.10;24.50;;;;;;487293;244;1241;-79
2021/12/10 03:33:51;;;;;;;;;;;24.00;24.70;;;;;;487385;243;1120;-78
2021/12/10 03:35:52;;;;;;;;;;;23.90;24.70;;;;;;487432;242;1174;-79
2021/12/10 03:37:54;;;;;;;;;;;23.90;24.70;;;;;;487428;243;1137;-78
2021/12/10 03:39:55;;;;;;;;;;;24.00;24.80;;;;;;487490;243;1036;-79
2021/12/10 03:41:57;;;;;;;;;;;24.20;24.50;;;;;;487415;243;1202;-78
2021/12/10 03:43:58;;;;;;;;;;;24.30;24.50;;;;;;487444;243;1199;-78
2021/12/10 03:45:59;;;;;;;;;;;24.00;24.50;;;;;;487332;244;2179;-78
2021/12/10 03:48:01;;;;;;;;;;;23.80;24.60;;;;;;487477;244;1599;-79
2021/12/10 03:50:02;;;;;;;;;;;24.10;24.60;;;;;;487410;243;1137;-78
2021/12/10 03:52:03;;;;;;;;;;;24.10;24.40;;;;;;487276;245;1238;-78
2021/12/10 03:54:04;;;;;;;;;;;24.00;24.50;;;;;;487574;243;1357;-78
2021/12/10 03:56:06;;;;;;;;;;;24.30;24.40;;;;;;487420;244;1236;-78
2021/12/10 03:58:07;;;;;;;;;;;25.30;24.10;;;;;;487466;243;1037;-78
2021/12/10 04:00:08;;;;;;;;;;;25.90;23.40;;;;;;487423;243;1087;-79
2021/12/10 04:02:10;;;;;;;;;;;26.30;23.30;;;;;;487473;244;1343;-79
2021/12/10 04:04:11;;;;;;;;;;;26.40;23.10;;;;;;487391;243;1126;-78
2021/12/10 04:06:12;;;;;;;;;;;26.50;23.10;;;;;;487383;243;2205;-79
2021/12/10 04:08:14;;;;;;;;;;;26.60;23.00;;;;;;487568;244;1207;-79
2021/12/10 04:10:15;;;;;;;;;;;26.60;23.00;;;;;;487662;242;946;-79
2021/12/10 04:12:17;;;;;;;;;;;26.60;23.00;;;;;;487465;243;1147;-79
2021/12/10 04:14:18;;;;;;;;;;;26.70;23.00;;;;;;487616;243;1370;-79
2021/12/10 04:16:19;;;;;;;;;;;26.60;22.90;;;;;;487407;243;1190;-79
2021/12/10 04:18:20;;;;;;;;;;;26.60;22.90;;;;;;487464;243;1019;-79
2021/12/10 04:20:22;;;;;;;;;;;26.70;23.00;;;;;;487455;242;1086;-79
2021/12/10 04:22:23;;;;;;;;;;;26.70;22.90;;;;;;487436;243;1226;-79
2021/12/10 04:24:24;;;;;;;;;;;26.80;22.90;;;;;;487499;242;1245;-79
2021/12/10 04:26:27;;;;;;;;;;;26.60;23.00;;;;;;487579;242;2182;-79
2021/12/10 04:28:27;;;;;;;;;;;26.60;22.90;;;;;;487333;244;1336;-79
2021/12/10 04:30:29;;;;;;;;;;;26.70;22.90;;;;;;487376;242;1071;-79
2021/12/10 04:32:30;;;;;;;;;;;26.80;22.80;;;;;;487420;243;1238;-79
2021/12/10 04:34:31;;;;;;;;;;;26.70;22.90;;;;;;487446;242;1043;-79
2021/12/10 04:36:33;;;;;;;;;;;26.80;22.80;;;;;;487473;243;1296;-79
2021/12/10 04:38:34;;;;;;;;;;;26.50;22.80;;;;;;487447;243;1070;-79
2021/12/10 04:40:35;;;;;;;;;;;26.50;23.00;;;;;;487416;242;1234;-79
2021/12/10 04:42:37;;;;;;;;;;;26.50;22.90;;;;;;487390;243;1164;-79
2021/12/10 04:44:38;;;;;;;;;;;26.60;22.80;;;;;;487383;242;1042;-79
2021/12/10 04:46:39;;;;;;;;;;;26.70;22.80;;;;;;487303;242;2198;-79
2021/12/10 04:48:41;;;;;;;;;;;26.90;22.70;;;;;;487400;243;1004;-79
2021/12/10 04:50:42;;;;;;;;;;;27.00;22.70;;;;;;487395;242;1315;-79
2021/12/10 04:52:43;;;;;;;;;;;27.00;22.60;;;;;;487607;242;1083;-79
2021/12/10 04:54:44;;;;;;;;;;;27.10;22.60;;;;;;487462;243;1089;-79
2021/12/10 04:56:46;;;;;;;;;;;26.10;22.90;;;;;;487423;243;976;-79
2021/12/10 04:58:47;;;;;;;;;;;25.60;23.20;;;;;;487576;244;1068;-79
2021/12/10 05:00:48;;;;;;;;;;;25.40;23.50;;;;;;487332;243;1070;-79
2021/12/10 05:02:50;;;;;;;;;;;25.00;23.50;;;;;;487368;243;1226;-79
2021/12/10 05:04:56;;;;;;;;;;;25.00;23.50;;;;;;487463;243;992;-79
2021/12/10 05:06:52;;;;;;;;;;;25.00;23.60;;;;;;487089;244;2186;-79
2021/12/10 05:08:54;;;;;;;;;;;25.20;23.40;;;;;;487460;243;1097;-79
2021/12/10 05:10:55;;;;;;;;;;;24.80;23.50;;;;;;487433;243;1084;-79
2021/12/10 05:12:56;;;;;;;;;;;24.60;23.80;;;;;;487421;243;1248;-79
2021/12/10 05:15:00;;;;;;;;;;;24.80;23.70;;;;;;487725;242;1170;-79
2021/12/10 05:17:03;;;;;;;;;;;24.60;23.70;;;;;;487251;240;1303;-79
2021/12/10 05:19:01;;;;;;;;;;;24.50;24.00;;;;;;487209;244;1442;-79
2021/12/10 05:21:02;;;;;;;;;;;24.80;23.80;;;;;;487380;244;1101;-79
2021/12/10 05:23:03;;;;;;;;;;;24.50;23.90;;;;;;487469;243;1006;-79
2021/12/10 05:25:04;;;;;;;;;;;24.60;23.70;;;;;;487553;243;1099;-78
2021/12/10 05:27:06;;;;;;;;;;;24.60;24.00;;;;;;487325;243;2202;-79
2021/12/10 05:29:07;;;;;;;;;;;26.10;23.20;;;;;;487434;240;1180;-79
2021/12/10 05:31:08;;;;;;;;;;;26.60;22.80;;;;;;487252;244;1097;-79
2021/12/10 05:33:15;;;;;;;;;;;26.80;22.60;;;;;;487303;243;1115;-79
2021/12/10 05:35:12;;;;;;;;;;;26.90;22.50;;;;;;487067;244;1515;-79
2021/12/10 05:37:13;;;;;;;;;;;26.90;22.50;;;;;;487333;243;1166;-79
2021/12/10 05:39:15;;;;;;;;;;;27.00;22.50;;;;;;487331;243;1209;-79
2021/12/10 05:41:16;;;;;;;;;;;27.00;22.50;;;;;;487328;243;1128;-79
2021/12/10 05:43:17;;;;;;;;;;;27.00;22.40;;;;;;487332;240;1166;-79
2021/12/10 05:45:18;;;;;;;;;;;27.00;22.40;;;;;;487324;243;1030;-79
2021/12/10 05:47:20;;;;;;;;;;;27.00;22.40;;;;;;487332;243;2123;-79
2021/12/10 05:49:21;;;;;;;;;;;27.00;22.40;;;;;;487430;242;1227;-79
2021/12/10 05:51:22;;;;;;;;;;;27.00;22.40;;;;;;487528;243;1165;-78
2021/12/10 05:53:24;;;;;;;;;;;26.90;22.50;;;;;;487579;243;1070;-79
2021/12/10 05:55:25;;;;;;;;;;;27.00;22.40;;;;;;487350;243;1160;-79
2021/12/10 05:57:26;;;;;;;;;;;26.90;22.40;;;;;;487273;243;1113;-79
2021/12/10 05:59:28;;;;;;;;;;;26.90;22.40;;;;;;487376;243;1102;-79
2021/12/10 06:01:29;;;;;;;;;;;26.90;22.40;;;;;;487427;243;1073;-79
2021/12/10 06:03:30;;;;;;;;;;;26.90;22.40;;;;;;487368;243;1072;-79
2021/12/10 06:05:33;;;;;;;;;;;27.00;22.40;;;;;;487331;245;989;-79
2021/12/10 06:07:33;;;;;;;;;;;26.90;22.30;;;;;;487246;244;2182;-79
2021/12/10 06:09:34;;;;;;;;;;;26.90;22.40;;;;;;487445;242;1041;-79
2021/12/10 06:11:36;;;;;;;;;;;26.90;22.30;;;;;;487337;243;1042;-79
2021/12/10 06:13:37;;;;;;;;;;;26.90;22.40;;;;;;487355;243;1043;-79
2021/12/10 06:15:38;;;;;;;;;;;26.80;22.40;;;;;;487528;243;994;-79
2021/12/10 06:17:39;;;;;;;;;;;26.90;22.40;;;;;;487342;243;1174;-79
2021/12/10 06:19:41;;;;;;;;;;;27.00;22.30;;;;;;487340;243;1052;-79
2021/12/10 06:21:42;;;;;;;;;;;27.00;22.30;;;;;;487259;243;1364;-78
2021/12/10 06:23:43;;;;;;;;;;;27.00;22.30;;;;;;487262;244;972;-79
2021/12/10 06:25:45;;;;;;;;;;;27.00;22.30;;;;;;487232;243;1002;-78
2021/12/10 06:27:46;;;;;;;;;;;27.00;22.30;;;;;;487376;243;2195;-79
2021/12/10 06:29:47;;;;;;;;;;;27.10;22.30;;;;;;487187;244;1456;-79
2021/12/10 06:31:49;;;;;;;;;;;27.00;22.20;;;;;;487312;244;1202;-78
2021/12/10 06:33:50;;;;;;;;;;;27.10;22.20;;;;;;487216;244;1114;-79
2021/12/10 06:35:51;;;;;;;;;;;27.10;22.20;;;;;;487249;243;1066;-79
2021/12/10 06:37:53;;;;;;;;;;;27.00;22.30;;;;;;487132;244;1105;-78
2021/12/10 06:39:54;;;;;;;;;;;27.00;22.30;;;;;;487187;244;1409;-79
2021/12/10 06:41:55;;;;;;;;;;;26.90;22.30;;;;;;487286;243;1220;-79
2021/12/10 06:43:57;;;;;;;;;;;26.90;22.30;;;;;;487270;242;1089;-79
2021/12/10 06:46:00;;;;;;;;;;;27.00;22.20;;;;;;487252;243;1047;-79
2021/12/10 06:48:01;;;;;;;;;;;27.00;22.20;;;;;;486950;244;2187;-78
2021/12/10 06:50:01;;;;;;;;;;;27.00;22.10;;;;;;487305;244;1484;-79
2021/12/10 06:52:03;;;;;;;;;;;27.10;22.20;;;;;;487138;243;1243;-79
2021/12/10 06:54:03;;;;;;;;;;;27.10;22.10;;;;;;487245;243;1200;-79
2021/12/10 06:56:05;;;;;;;;;;;27.10;22.10;;;;;;487106;243;1075;-78
2021/12/10 06:58:06;;;;;;;;;;;27.10;22.10;;;;;;487183;243;1062;-79
2021/12/10 07:00:07;;;;;;;;;;;27.10;22.10;;;;;;487228;243;1152;-79
2021/12/10 07:02:08;;;;;;;;;;;27.00;22.10;;;;;;487157;240;1234;-79
2021/12/10 07:04:11;;;;;;;;;;;27.10;22.10;;;;;;487102;242;1038;-79
2021/12/10 07:06:11;;;;;;;;;;;27.10;22.00;;;;;;487073;245;1384;-79
2021/12/10 07:08:12;;;;;;;;;;;27.10;22.10;;;;;;487248;242;2194;-79
2021/12/10 07:10:14;;;;;;;;;;;27.10;22.10;;;;;;487199;243;1059;-78
2021/12/10 07:12:16;;;;;;;;;;;27.10;22.10;;;;;;487188;243;1192;-79
2021/12/10 07:14:16;;;;;;;;;;;27.00;22.10;;;;;;487112;243;1159;-79
2021/12/10 07:16:18;;;;;;;;;;;27.00;22.00;;;;;;486970;245;1334;-79
2021/12/10 07:18:19;;;;;;;;;;;27.10;22.10;;;;;;487029;243;1028;-78
2021/12/10 07:20:21;;;;;;;;;;;26.40;22.10;;;;;;487018;243;1086;-79
2021/12/10 07:22:22;;;;;;;;;;;25.80;22.60;;;;;;487222;244;1499;-79
2021/12/10 07:24:23;;;;;;;;;;;25.50;22.80;;;;;;487002;243;1212;-79
2021/12/10 07:26:27;;;;;;;;;;;25.40;22.70;;;;;;487002;243;1264;-79
2021/12/10 07:28:26;;;;;;;;;;;24.90;23.00;;;;;;486992;243;2186;-79
2021/12/10 07:30:27;;;;;;;;;;;25.00;23.20;;;;;;486996;243;1187;-79
2021/12/10 07:32:29;;;;;;;;;;;25.00;23.10;;;;;;487294;242;1076;-78
2021/12/10 07:34:30;;;;;;;;;;;25.20;22.90;;;;;;487191;242;1016;-79
2021/12/10 07:36:31;;;;;;;;;;;25.00;22.90;;;;;;486996;243;1166;-78
2021/12/10 07:38:33;;;;;;;;;;;24.50;23.20;;;;;;486951;243;1117;-78
2021/12/10 07:40:34;;;;;;;;;;;24.80;23.30;;;;;;486976;242;1076;-79
2021/12/10 07:42:35;;;;;;;;;;;25.10;23.10;;;;;;486985;243;1088;-79
2021/12/10 07:44:36;;;;;;;;;;;25.10;23.00;;;;;;486941;245;1047;-79
2021/12/10 07:46:39;;;;;;;;;;;24.80;23.20;;;;;;486946;244;1039;-79
2021/12/10 07:48:39;;;;;;;;;;;24.60;23.10;;;;;;486997;243;2198;-79
2021/12/10 07:50:40;;;;;;;;;;;24.40;23.40;;;;;;487115;244;1048;-78
2021/12/10 07:52:44;;;;;;;;;;;24.40;23.50;;;;;;486901;240;1153;-79
2021/12/10 07:54:43;;;;;;;;;;;24.20;23.50;;;;;;487088;243;1646;-78
2021/12/10 07:56:44;;;;;;;;;;;24.00;23.70;;;;;;486918;243;1068;-79
2021/12/10 07:58:46;;;;;;;;;;;23.70;23.80;;;;;;487014;243;1213;-79
2021/12/10 08:00:47;;;;;;;;;;;23.70;24.00;;;;;;487014;243;1189;-79
2021/12/10 08:02:48;;;;;;;;;;;23.70;23.90;;;;;;486920;242;1110;-79
2021/12/10 08:04:50;;;;;;;;;;;23.80;23.90;;;;;;486979;243;1065;-78
2021/12/10 08:06:51;;;;;;;;;;;23.80;24.00;;;;;;487003;244;1063;-78
2021/12/10 08:08:52;;;;;;;;;;;24.70;23.50;;;;;;487013;242;2174;-79
2021/12/10 08:10:54;;;;;;;;;;;25.10;23.10;;;;;;486946;243;1413;-79
2021/12/10 08:12:55;;;;;;;;;;;25.30;23.00;;;;;;486889;242;1109;-79
2021/12/10 08:14:56;;;;;;;;;;;25.20;22.90;;;;;;486899;243;1059;-79
2021/12/10 08:16:58;;;;;;;;;;;25.30;23.00;;;;;;486843;243;1135;-79
2021/12/10 08:18:59;;;;;;;;;;;25.40;22.90;;;;;;486791;243;1176;-79
2021/12/10 08:21:00;;;;;;;;;;;25.50;22.90;;;;;;486857;243;1265;-79
2021/12/10 08:23:01;;;;;;;;;;;25.60;22.90;;;;;;486800;243;1120;-79
2021/12/10 08:25:03;;;;;;;;;;;25.60;22.80;;;;;;486807;243;1184;-79
2021/12/10 08:27:04;;;;;;;;;;;25.60;22.80;;;;;;486858;243;1160;-79
2021/12/10 08:29:06;;;;;;;;;;;25.60;22.80;;;;;;486674;243;2178;-79
2021/12/10 08:31:07;;;;;;;;;;;25.60;22.80;;;;;;486682;243;1218;-79
2021/12/10 08:33:12;;;;;;;;;;;25.50;22.80;;;;;;486885;243;1049;-79
2021/12/10 08:35:10;;;;;;;;;;;25.50;22.90;;;;;;486936;244;1387;-79
2021/12/10 08:37:12;;;;;;;;;;;25.50;22.90;;;;;;486869;243;1201;-79
2021/12/10 08:39:13;;;;;;;;;;;25.40;22.90;;;;;;486795;243;1098;-78
2021/12/10 08:41:14;;;;;;;;;;;25.40;22.90;;;;;;486695;243;1391;-78
2021/12/10 08:43:16;;;;;;;;;;;25.40;22.90;;;;;;486702;243;1036;-78
2021/12/10 08:45:18;;;;;;;;;;;25.50;22.90;;;;;;486691;243;1042;-78
2021/12/10 08:47:18;;;;;;;;;;;25.40;22.90;;;;;;486641;244;2135;-78
2021/12/10 08:49:20;;;;;;;;;;;25.40;22.90;;;;;;486689;245;1226;-78
2021/12/10 08:51:21;;;;;;;;;;;25.40;23.00;;;;;;486713;244;1213;-78
2021/12/10 08:53:22;;;;;;;;;;;25.60;22.90;;;;;;487064;243;1102;-78
2021/12/10 08:55:23;;;;;;;;;;;25.50;22.90;;;;;;487076;243;1326;-78
2021/12/10 08:57:26;;;;;;;;;;;25.50;22.90;;;;;;486753;243;1069;-78
2021/12/10 08:59:26;;;;;;;;;;;25.40;22.90;;;;;;486694;243;1295;-78
2021/12/10 09:01:27;;;;;;;;;;;24.50;23.30;;;;;;486692;243;1032;-78
2021/12/10 09:03:29;;;;;;;;;;;23.90;23.80;;;;;;486801;243;1063;-78
2021/12/10 09:05:30;;;;;;;;;;;23.70;23.90;;;;;;486725;243;1058;-78
2021/12/10 09:07:31;;;;;;;;;;;23.60;24.10;;;;;;486786;243;2178;-78
2021/12/10 09:09:33;;;;;;;;;;;23.60;24.10;;;;;;486919;243;1094;-78
2021/12/10 09:11:34;;;;;;;;;;;23.50;24.10;;;;;;486779;244;1072;-78
2021/12/10 09:13:35;;;;;;;;;;;23.30;24.30;;;;;;486909;243;1089;-78
2021/12/10 09:15:37;;;;;;;;;;;23.40;24.40;;;;;;486896;242;1065;-78
2021/12/10 09:17:38;;;;;;;;;;;23.50;24.20;;;;;;487161;243;1126;-79
2021/12/10 09:19:40;;;;;;;;;;;23.30;24.30;;;;;;486920;243;1137;-79
2021/12/10 09:21:41;;;;;;;;;;;23.20;24.30;;;;;;486766;243;1309;-79
2021/12/10 09:23:42;;;;;;;;;;;23.20;24.40;;;;;;486806;243;1054;-79
2021/12/10 09:25:44;;;;;;;;;;;23.30;24.50;;;;;;486913;243;1197;-78
2021/12/10 09:27:45;;;;;;;;;;;23.30;24.30;;;;;;486994;242;2190;-79
2021/12/10 09:29:46;;;;;;;;;;;23.40;24.30;;;;;;486957;243;1078;-79
2021/12/10 09:31:48;;;;;;;;;;;23.10;24.30;;;;;;486960;242;1257;-79
2021/12/10 09:33:49;;;;;;;;;;;23.20;24.50;;;;;;486975;242;1118;-79
2021/12/10 09:35:50;;;;;;;;;;;23.20;24.50;;;;;;486969;243;1066;-79
2021/12/10 09:37:52;;;;;;;;;;;23.20;24.40;;;;;;486853;242;1081;-79
2021/12/10 09:39:53;;;;;;;;;;;23.20;24.40;;;;;;486924;242;1244;-79
2021/12/10 09:41:54;;;;;;;;;;;23.30;24.40;;;;;;486956;242;1116;-79
2021/12/10 09:43:55;;;;;;;;;;;23.10;24.40;;;;;;487075;242;1005;-79
2021/12/10 09:45:57;;;;;;;;;;;23.10;24.40;;;;;;486783;245;1210;-79
2021/12/10 09:47:58;;;;;;;;;;;23.10;24.50;;;;;;486682;243;2186;-79
2021/12/10 09:50:00;;;;;;;;;;;23.10;24.40;;;;;;486676;243;1065;-79
2021/12/10 09:52:01;;;;;;;;;;;23.20;24.50;;;;;;487095;243;1083;-78
2021/12/10 09:54:02;;;;;;;;;;;23.20;24.40;;;;;;486849;245;971;-79
2021/12/10 09:56:04;;;;;;;;;;;23.30;24.30;;;;;;486872;244;1204;-79
2021/12/10 09:58:05;;;;;;;;;;;23.20;24.30;;;;;;487082;243;1082;-79
2021/12/10 10:00:06;;;;;;;;;;;23.20;24.40;;;;;;486844;243;1006;-79
2021/12/10 10:02:08;;;;;;;;;;;23.30;24.30;;;;;;486947;244;1553;-79
2021/12/10 10:04:10;;;;;;;;;;;23.40;24.30;;;;;;486759;244;1080;-79
2021/12/10 10:06:10;;;;;;;;;;;23.80;24.10;;;;;;486667;243;1410;-79
2021/12/10 10:08:12;;;;;;;;;;;24.10;23.80;;;;;;486884;243;2138;-80
2021/12/10 10:10:13;;;;;;;;;;;24.10;23.80;;;;;;486879;243;1150;-79
2021/12/10 10:12:14;;;;;;;;;;;24.40;23.70;;;;;;486878;243;1167;-79
2021/12/10 10:14:16;;;;;;;;;;;24.70;23.50;;;;;;486763;243;1049;-79
2021/12/10 10:16:17;;;;;;;;;;;24.40;23.50;;;;;;486853;244;1100;-79
2021/12/10 10:18:20;;;;;;;;;;;24.90;23.30;;;;;;487019;243;1061;-79
2021/12/10 10:20:20;;;;;;;;;;;24.90;23.20;;;;;;486927;243;1492;-79
2021/12/10 10:22:22;;;;;;;;;;;24.70;23.30;;;;;;486846;243;1085;-79
2021/12/10 10:24:23;;;;;;;;;;;24.60;23.40;;;;;;486882;243;1018;-79
2021/12/10 10:26:25;;;;;;;;;;;24.50;23.40;;;;;;486872;242;1191;-79
2021/12/10 10:28:26;;;;;;;;;;;24.60;23.40;;;;;;486798;243;2194;-79
2021/12/10 10:30:28;;;;;;;;;;;24.90;23.10;;;;;;486780;243;1159;-79
2021/12/10 10:32:29;;;;;;;;;;;24.90;23.20;;;;;;486758;243;1299;-79
2021/12/10 10:34:30;;;;;;;;;;;24.70;23.30;;;;;;486801;242;1461;-79
2021/12/10 10:36:32;;;;;;;;;;;25.00;23.20;;;;;;486832;242;1405;-79
2021/12/10 10:38:33;;;;;;;;;;;24.90;23.00;;;;;;486992;244;1287;-79
2021/12/10 10:40:34;;;;;;;;;;;24.90;23.10;;;;;;486919;243;1281;-79
2021/12/10 10:42:35;;;;;;;;;;;24.90;23.20;;;;;;487074;243;1199;-79
2021/12/10 10:44:37;;;;;;;;;;;25.00;23.10;;;;;;486967;243;1048;-79
2021/12/10 10:46:38;;;;;;;;;;;24.80;23.10;;;;;;486969;240;1115;-79
2021/12/10 10:48:39;;;;;;;;;;;24.80;23.30;;;;;;486878;245;2111;-79
2021/12/10 10:50:41;;;;;;;;;;;24.70;23.20;;;;;;486877;244;1084;-79
2021/12/10 10:52:43;;;;;;;;;;;24.90;23.10;;;;;;486905;243;1150;-79
2021/12/10 10:54:43;;;;;;;;;;;24.50;23.30;;;;;;486582;244;1305;-76
2021/12/10 10:56:45;;;;;;;;;;;24.60;23.40;;;;;;486592;243;1222;-79
2021/12/10 10:58:46;;;;;;;;;;;24.30;23.60;;;;;;486819;243;1086;-78
2021/12/10 11:00:52;;;;;;;;;;;24.30;23.70;;;;;;486695;243;1118;-79
2021/12/10 11:02:52;;;;;;;;;;;24.30;23.60;;;;;;486566;244;1388;-78
2021/12/10 11:04:52;;;;;;;;;;;24.20;23.80;;;;;;486935;244;1339;-78
2021/12/10 11:06:52;;;;;;;;;;;24.20;23.50;;;;;;486721;243;1431;-78
2021/12/10 11:08:53;;;;;;;;;;;24.30;23.60;;;;;;486737;243;2183;-78
2021/12/10 11:10:58;;;;;;;;;;;24.00;23.70;;;;;;486734;243;1165;-78
2021/12/10 11:12:56;;;;;;;;;;;24.30;23.80;;;;;;486592;245;1391;-78
2021/12/10 11:14:58;;;;;;;;;;;24.20;23.60;;;;;;486824;244;1071;-78
2021/12/10 11:16:59;;;;;;;;;;;24.00;23.80;;;;;;486847;243;1207;-78
2021/12/10 11:19:00;;;;;;;;;;;23.90;23.90;;;;;;486784;243;1016;-78
2021/12/10 11:21:02;;;;;;;;;;;24.10;23.70;;;;;;486888;243;1089;-78
2021/12/10 11:23:03;;;;;;;;;;;24.20;23.70;;;;;;486746;242;1077;-78
2021/12/10 11:25:06;;;;;;;;;;;24.40;23.60;;;;;;486860;242;1119;-78
2021/12/10 11:27:07;;;;;;;;;;;24.10;23.60;;;;;;486799;244;1367;-78
2021/12/10 11:29:07;;;;;;;;;;;24.10;23.80;;;;;;487052;243;2194;-78
2021/12/10 11:31:08;;;;;;;;;;;24.00;23.70;;;;;;486742;243;1092;-78
2021/12/10 11:33:10;;;;;;;;;;;24.10;23.80;;;;;;486632;242;1158;-78
2021/12/10 11:35:11;;;;;;;;;;;24.00;23.70;;;;;;486935;242;1227;-78
2021/12/10 11:37:12;;;;;;;;;;;24.10;23.80;;;;;;486627;242;1119;-78
2021/12/10 11:39:14;;;;;;;;;;;24.20;23.80;;;;;;486626;243;1038;-78
2021/12/10 11:41:15;;;;;;;;;;;24.60;23.30;;;;;;486778;243;1269;-78
2021/12/10 11:43:20;;;;;;;;;;;24.40;23.50;;;;;;486890;243;1125;-78
2021/12/10 11:45:30;;;;;;;;;;;24.50;23.60;;;;;;487028;244;1355;-78
2021/12/10 11:47:27;;;;;;;;;;;24.40;23.50;;;;;;486357;243;1300;-78
2021/12/10 11:49:26;;;;;;;;;;;24.40;23.50;;;;;;486678;244;2187;-78
2021/12/10 11:51:27;;;;;;;;;;;24.80;23.40;;;;;;486816;243;1340;-78
2021/12/10 11:53:28;;;;;;;;;;;24.60;23.30;;;;;;486795;243;1101;-78
2021/12/10 11:55:29;;;;;;;;;;;24.30;23.40;;;;;;486767;243;1267;-78
2021/12/10 11:57:31;;;;;;;;;;;24.00;23.70;;;;;;486814;243;1303;-78
2021/12/10 11:59:32;;;;;;;;;;;24.10;23.70;;;;;;486862;243;1040;-78
2021/12/10 12:01:33;;;;;;;;;;;24.20;23.60;;;;;;486944;244;1227;-78
2021/12/10 12:03:35;;;;;;;;;;;24.60;23.40;;;;;;486605;243;1252;-78